createdAt,value
2019-04-11T00:01:36.807Z,14.63
2019-04-11T00:03:59.849Z,17.87
2019-04-11T00:06:29.749Z,16.00
2019-04-11T00:08:58.704Z,16.13
2019-04-11T00:11:28.140Z,20.87
2019-04-11T00:13:57.784Z,16.03
2019-04-11T00:16:26.698Z,16.87
2019-04-11T00:18:56.831Z,18.07
2019-04-11T00:21:25.802Z,14.97
2019-04-11T00:23:54.607Z,16.30
2019-04-11T00:26:24.437Z,14.80
2019-04-11T00:28:54.190Z,16.73
2019-04-11T00:31:23.155Z,14.40
2019-04-11T00:33:52.024Z,13.83
2019-04-11T00:36:22.146Z,14.27
2019-04-11T00:38:51.058Z,13.33
2019-04-11T00:41:19.867Z,12.93
2019-04-11T00:43:48.614Z,12.80
2019-04-11T00:46:18.250Z,12.37
2019-04-11T00:48:48.102Z,16.63
2019-04-11T00:51:17.633Z,13.50
2019-04-11T00:53:47.499Z,13.73
2019-04-11T00:56:16.322Z,11.57
2019-04-11T00:58:45.680Z,10.90
2019-04-11T01:01:15.654Z,15.60
2019-04-11T01:03:45.431Z,13.57
2019-04-11T01:06:14.382Z,12.93
2019-04-11T01:08:43.980Z,14.17
2019-04-11T01:11:13.949Z,13.93
2019-04-11T01:13:49.177Z,14.20
2019-04-11T01:16:28.342Z,11.10
2019-04-11T01:18:58.242Z,16.40
2019-04-11T01:21:27.170Z,13.03
2019-04-11T01:23:56.031Z,13.87
2019-04-11T01:26:25.365Z,13.80
2019-04-11T01:28:55.409Z,12.40
2019-04-11T01:31:26.080Z,11.77
2019-04-11T01:33:55.967Z,15.83
2019-04-11T01:36:24.881Z,14.57
2019-04-11T01:39:05.163Z,13.00
2019-04-11T01:41:34.397Z,12.73
2019-04-11T01:44:05.496Z,11.47
2019-04-11T01:46:34.035Z,11.07
2019-04-11T01:49:08.035Z,13.90
2019-04-11T01:51:37.922Z,11.50
2019-04-11T01:54:07.747Z,13.93
2019-04-11T01:56:37.086Z,12.97
2019-04-11T01:59:06.947Z,11.83
2019-04-11T02:01:41.069Z,11.97
2019-04-11T02:04:14.405Z,15.87
2019-04-11T02:06:43.158Z,10.33
2019-04-11T02:09:13.874Z,12.93
2019-04-11T02:11:42.776Z,12.87
2019-04-11T02:14:16.175Z,12.97
2019-04-11T02:16:43.211Z,11.73
2019-04-11T02:19:12.162Z,11.80
2019-04-11T02:21:42.032Z,11.70
2019-04-11T02:24:12.799Z,11.43
2019-04-11T02:26:46.534Z,11.70
2019-04-11T02:29:13.500Z,11.80
2019-04-11T02:31:42.470Z,13.60
2019-04-11T02:34:13.497Z,13.10
2019-04-11T02:36:42.909Z,11.77
2019-04-11T02:39:16.891Z,14.40
2019-04-11T02:41:44.346Z,14.73
2019-04-11T02:44:30.690Z,12.20
2019-04-11T02:46:51.658Z,12.23
2019-04-11T02:49:14.975Z,11.83
2019-04-11T02:51:44.970Z,12.03
2019-04-11T02:54:15.747Z,13.20
2019-04-11T02:56:45.586Z,15.37
2019-04-11T02:59:15.460Z,15.83
2019-04-11T03:01:46.327Z,16.37
2019-04-11T03:04:14.972Z,13.67
2019-04-11T03:06:44.384Z,17.40
2019-04-11T03:09:15.435Z,18.53
2019-04-11T03:11:45.168Z,18.67
2019-04-11T03:14:16.365Z,18.07
2019-04-11T03:16:56.642Z,20.73
2019-04-11T03:19:29.690Z,15.73
2019-04-11T03:21:47.375Z,17.83
2019-04-11T03:24:17.696Z,16.50
2019-04-11T03:26:47.302Z,18.33
2019-04-11T03:29:17.632Z,17.47
2019-04-11T03:35:12.106Z,18.43
2019-04-11T03:37:19.311Z,18.43
2019-04-11T03:39:39.787Z,17.10
2019-04-11T03:42:08.018Z,19.10
2019-04-11T03:44:25.466Z,18.40
2019-04-11T03:47:08.322Z,18.40
2019-04-11T03:49:32.828Z,18.20
2019-04-11T03:51:52.947Z,21.43
2019-04-11T03:54:23.116Z,25.07
2019-04-11T03:56:53.355Z,17.33
2019-04-11T03:59:23.687Z,17.83
2019-04-11T04:01:54.342Z,15.80
2019-04-11T04:04:23.928Z,18.13
2019-04-11T04:06:55.292Z,18.30
2019-04-11T04:09:26.165Z,16.70
2019-04-11T04:11:56.927Z,17.23
2019-04-11T04:14:29.052Z,17.77
2019-04-11T04:17:17.067Z,17.30
2019-04-11T04:19:56.874Z,16.63
2019-04-11T04:22:41.687Z,19.27
2019-04-11T04:25:12.410Z,19.67
2019-04-11T04:27:42.806Z,20.87
2019-04-11T04:30:13.692Z,20.57
2019-04-11T04:32:43.413Z,21.10
2019-04-11T04:35:15.624Z,20.50
2019-04-11T04:37:45.282Z,24.77
2019-04-11T04:40:40.291Z,21.47
2019-04-11T04:42:54.475Z,21.50
2019-04-11T04:45:21.430Z,23.43
2019-04-11T04:47:56.611Z,20.23
2019-04-11T04:50:22.423Z,25.23
2019-04-11T04:52:51.731Z,22.00
2019-04-11T04:55:23.414Z,23.53
2019-04-11T04:57:53.253Z,23.93
2019-04-11T05:00:23.408Z,20.67
2019-04-11T05:02:54.697Z,23.90
2019-04-11T05:05:24.350Z,22.47
2019-04-11T05:07:53.989Z,25.57
2019-04-11T05:10:24.145Z,22.97
2019-04-11T05:12:54.470Z,23.80
2019-04-11T05:15:24.334Z,25.93
2019-04-11T05:17:53.428Z,24.87
2019-04-11T05:20:22.211Z,23.77
2019-04-11T05:22:51.313Z,27.10
2019-04-11T05:25:20.428Z,23.03
2019-04-11T05:27:49.665Z,22.30
2019-04-11T05:30:19.187Z,23.63
2019-04-11T05:32:49.236Z,22.87
2019-04-11T05:35:18.530Z,24.87
2019-04-11T05:37:47.370Z,22.30
2019-04-11T05:40:16.871Z,22.30
2019-04-11T05:42:50.994Z,25.43
2019-04-11T05:45:21.057Z,32.23
2019-04-11T05:47:50.892Z,24.93
2019-04-11T05:50:18.724Z,22.73
2019-04-11T05:52:48.271Z,24.40
2019-04-11T05:55:17.686Z,22.37
2019-04-11T05:57:47.108Z,26.83
2019-04-11T06:00:21.484Z,24.63
2019-04-11T06:03:03.894Z,23.97
2019-04-11T06:05:36.048Z,22.37
2019-04-11T06:08:06.804Z,23.03
2019-04-11T06:10:44.991Z,28.43
2019-04-11T06:13:16.415Z,23.93
2019-04-11T06:16:01.470Z,22.17
2019-04-11T06:18:48.023Z,28.80
2019-04-11T06:21:19.876Z,24.37
2019-04-11T06:23:50.428Z,25.33
2019-04-11T06:26:21.323Z,24.77
2019-04-11T06:28:54.312Z,26.13
2019-04-11T06:31:26.626Z,30.67
2019-04-11T06:33:57.266Z,24.07
2019-04-11T06:36:30.629Z,26.37
2019-04-11T06:39:01.131Z,25.00
2019-04-11T06:41:48.628Z,27.10
2019-04-11T06:44:19.256Z,25.83
2019-04-11T06:46:58.942Z,25.67
2019-04-11T06:49:44.662Z,25.47
2019-04-11T06:52:16.762Z,24.67
2019-04-11T06:55:04.591Z,24.40
2019-04-11T06:57:34.719Z,27.83
2019-04-11T07:00:05.628Z,25.53
2019-04-11T07:02:36.896Z,26.37
2019-04-11T07:05:10.639Z,27.77
2019-04-11T07:07:43.017Z,29.00
2019-04-11T07:10:12.336Z,25.23
2019-04-11T07:12:42.853Z,26.03
2019-04-11T07:15:14.442Z,23.47
2019-04-11T07:18:01.139Z,24.77
2019-04-11T07:20:43.844Z,22.10
2019-04-11T07:23:31.137Z,23.70
2019-04-11T07:26:02.553Z,23.63
2019-04-11T07:28:42.055Z,23.87
2019-04-11T07:31:30.045Z,22.93
2019-04-11T07:34:12.501Z,25.00
2019-04-11T07:36:58.163Z,20.07
2019-04-11T07:39:29.041Z,22.77
2019-04-11T07:42:00.339Z,19.27
2019-04-11T07:44:32.153Z,22.80
2019-04-11T07:47:17.173Z,18.30
2019-04-11T07:49:43.595Z,20.57
2019-04-11T07:52:13.963Z,18.40
2019-04-11T07:54:43.326Z,19.03
2019-04-11T07:57:14.940Z,17.80
2019-04-11T07:59:46.480Z,18.70
2019-04-11T08:02:24.330Z,19.83
2019-04-11T08:05:11.603Z,18.77
2019-04-11T08:07:57.360Z,15.30
2019-04-11T08:10:35.133Z,15.57
2019-04-11T08:13:08.791Z,20.03
2019-04-11T08:15:55.801Z,20.47
2019-04-11T08:18:35.528Z,17.87
2019-04-11T08:21:22.333Z,18.60
2019-04-11T08:23:54.097Z,18.83
2019-04-11T08:26:24.619Z,22.30
2019-04-11T08:29:05.313Z,16.77
2019-04-11T08:31:28.974Z,18.27
2019-04-11T08:33:59.282Z,17.27
2019-04-11T08:36:31.657Z,16.90
2019-04-11T08:39:00.710Z,21.07
2019-04-11T08:41:47.543Z,18.20
2019-04-11T08:44:17.417Z,19.80
2019-04-11T08:46:47.956Z,16.73
2019-04-11T08:49:29.079Z,14.80
2019-04-11T08:52:00.034Z,15.70
2019-04-11T08:54:48.724Z,16.30
2019-04-11T08:57:20.032Z,18.90
2019-04-11T08:59:53.532Z,16.87
2019-04-11T09:02:22.612Z,18.13
2019-04-11T09:05:14.819Z,14.53
2019-04-11T09:07:47.701Z,19.80
2019-04-11T09:10:24.252Z,14.23
2019-04-11T09:12:58.550Z,14.33
2019-04-11T09:15:32.942Z,16.03
2019-04-11T09:18:06.351Z,16.13
2019-04-11T09:20:51.723Z,14.50
2019-04-11T09:23:21.691Z,13.67
2019-04-11T09:26:01.545Z,14.77
2019-04-11T09:28:35.691Z,14.07
2019-04-11T09:31:08.929Z,16.00
2019-04-11T09:33:41.523Z,16.87
2019-04-11T09:36:30.317Z,15.63
2019-04-11T09:39:12.919Z,22.10
2019-04-11T09:42:00.850Z,23.10
2019-04-11T09:44:49.856Z,23.90
2019-04-11T09:47:36.255Z,20.67
2019-04-11T09:50:26.730Z,17.03
2019-04-11T09:52:57.994Z,17.30
2019-04-11T09:55:37.526Z,19.63
2019-04-11T09:58:08.969Z,18.17
2019-04-11T10:00:45.223Z,18.37
2019-04-11T10:03:15.849Z,27.17
2019-04-11T10:06:03.024Z,19.00
2019-04-11T10:08:37.285Z,18.40
2019-04-11T10:11:26.649Z,29.87
2019-04-11T10:13:57.602Z,20.73
2019-04-11T10:16:28.425Z,17.67
2019-04-11T10:18:59.811Z,18.17
2019-04-11T10:21:31.098Z,22.43
2019-04-11T10:24:05.158Z,20.00
2019-04-11T10:26:36.161Z,22.10
2019-04-11T10:29:06.657Z,23.10
2019-04-11T10:31:37.055Z,16.77
2019-04-11T10:34:23.610Z,18.47
2019-04-11T10:36:54.178Z,25.97
2019-04-11T10:39:37.453Z,22.00
2019-04-11T10:42:14.775Z,21.83
2019-04-11T10:44:45.728Z,21.37
2019-04-11T10:47:22.913Z,20.23
2019-04-11T10:49:56.760Z,23.97
2019-04-11T10:52:27.157Z,20.93
2019-04-11T10:55:14.118Z,23.07
2019-04-11T10:57:48.636Z,29.07
2019-04-11T11:00:19.462Z,39.57
2019-04-11T11:02:49.817Z,22.67
2019-04-11T11:05:20.278Z,19.37
2019-04-11T11:07:49.044Z,15.97
2019-04-11T11:10:19.550Z,26.10
2019-04-11T11:13:02.340Z,22.80
2019-04-11T11:15:33.678Z,22.70
2019-04-11T11:18:35.236Z,21.93
2019-04-11T11:20:48.893Z,24.77
2019-04-11T11:23:33.117Z,21.90
2019-04-11T11:26:20.970Z,29.00
2019-04-11T11:28:53.239Z,22.73
2019-04-11T11:31:27.913Z,26.30
2019-04-11T11:33:58.858Z,22.07
2019-04-11T11:36:39.500Z,18.37
2019-04-11T11:39:26.886Z,21.90
2019-04-11T11:42:10.358Z,19.97
2019-04-11T11:44:53.184Z,19.33
2019-04-11T11:47:41.594Z,23.13
2019-04-11T11:50:17.943Z,26.77
2019-04-11T11:52:51.132Z,25.57
2019-04-11T11:55:33.601Z,19.83
2019-04-11T11:58:16.833Z,18.23
2019-04-11T12:00:45.723Z,20.43
2019-04-11T12:03:15.274Z,18.47
2019-04-11T12:05:48.550Z,17.53
2019-04-11T12:08:22.245Z,27.43
2019-04-11T12:10:53.417Z,17.67
2019-04-11T12:13:40.727Z,27.13
2019-04-11T12:16:15.924Z,27.57
2019-04-11T12:19:02.528Z,19.73
2019-04-11T12:21:33.051Z,24.97
2019-04-11T12:24:07.051Z,17.40
2019-04-11T12:26:38.272Z,20.00
2019-04-11T12:29:10.166Z,20.47
2019-04-11T12:31:40.261Z,22.00
2019-04-11T12:34:27.197Z,24.33
2019-04-11T12:36:56.964Z,19.40
2019-04-11T12:39:43.406Z,18.67
2019-04-11T12:42:13.839Z,21.90
2019-04-11T12:44:47.305Z,18.63
2019-04-11T12:47:20.169Z,18.73
2019-04-11T12:49:53.162Z,15.60
2019-04-11T12:52:34.924Z,18.37
2019-04-11T12:55:14.836Z,18.67
2019-04-11T12:57:48.142Z,33.77
2019-04-11T13:00:18.974Z,15.57
2019-04-11T13:03:04.921Z,14.50
2019-04-11T13:05:44.398Z,17.93
2019-04-11T13:08:31.057Z,17.43
2019-04-11T13:11:00.447Z,17.90
2019-04-11T13:13:33.898Z,18.37
2019-04-11T13:16:11.943Z,18.43
2019-04-11T13:18:52.806Z,14.30
2019-04-11T13:21:23.398Z,17.90
2019-04-11T13:23:53.746Z,16.30
2019-04-11T13:26:40.429Z,18.17
2019-04-11T13:29:13.576Z,15.87
2019-04-11T13:31:55.695Z,17.17
2019-04-11T13:34:30.834Z,14.93
2019-04-11T13:37:17.492Z,27.87
2019-04-11T13:39:47.976Z,15.77
2019-04-11T13:42:34.638Z,16.17
2019-04-11T13:45:03.513Z,14.37
2019-04-11T13:47:36.625Z,15.20
2019-04-11T13:50:16.192Z,19.43
2019-04-11T13:52:42.635Z,17.10
2019-04-11T13:55:13.793Z,15.40
2019-04-11T13:58:00.842Z,15.10
2019-04-11T14:00:40.436Z,16.83
2019-04-11T14:03:26.092Z,23.50
2019-04-11T14:05:57.071Z,15.10
2019-04-11T14:08:39.436Z,18.20
2019-04-11T14:11:09.904Z,17.07
2019-04-11T14:13:40.396Z,14.90
2019-04-11T14:16:17.255Z,15.43
2019-04-11T14:18:59.348Z,15.53
2019-04-11T14:21:32.742Z,16.90
2019-04-11T14:24:03.256Z,14.87
2019-04-11T14:26:39.614Z,14.70
2019-04-11T14:29:15.819Z,17.23
2019-04-11T14:31:46.337Z,24.17
2019-04-11T14:34:33.141Z,16.30
2019-04-11T14:37:09.599Z,19.90
2019-04-11T14:39:48.961Z,16.63
2019-04-11T14:42:22.592Z,13.87
2019-04-11T14:44:53.008Z,15.13
2019-04-11T14:47:23.413Z,13.97
2019-04-11T14:49:53.885Z,16.33
2019-04-11T14:52:39.281Z,12.93
2019-04-11T14:55:08.768Z,14.90
2019-04-11T14:57:56.035Z,13.27
2019-04-11T15:00:29.227Z,14.80
2019-04-11T15:03:17.833Z,22.20
2019-04-11T15:05:48.406Z,15.23
2019-04-11T15:08:21.561Z,16.03
2019-04-11T15:11:09.639Z,12.77
2019-04-11T15:13:40.948Z,13.27
2019-04-11T15:16:23.326Z,17.90
2019-04-11T15:18:53.904Z,15.77
2019-04-11T15:21:39.850Z,16.47
2019-04-11T15:24:09.472Z,14.07
2019-04-11T15:26:56.129Z,15.70
2019-04-11T15:29:26.497Z,15.73
2019-04-11T15:32:02.092Z,19.27
2019-04-11T15:34:40.965Z,16.00
2019-04-11T15:37:28.107Z,19.93
2019-04-11T15:40:14.552Z,13.17
2019-04-11T15:42:53.669Z,14.73
2019-04-11T15:45:42.423Z,11.90
2019-04-11T15:48:17.755Z,11.40
2019-04-11T15:51:06.916Z,21.63
2019-04-11T15:53:47.840Z,17.10
2019-04-11T15:56:36.232Z,12.50
2019-04-11T15:59:13.002Z,12.73
2019-04-11T16:01:42.538Z,14.93
2019-04-11T16:04:18.494Z,20.37
2019-04-11T16:06:48.938Z,11.93
2019-04-11T16:09:18.359Z,13.30
2019-04-11T16:11:51.389Z,13.47
2019-04-11T16:14:19.446Z,13.87
2019-04-11T16:16:49.832Z,12.10
2019-04-11T16:19:26.249Z,20.03
2019-04-11T16:22:03.196Z,17.13
2019-04-11T16:24:39.723Z,12.10
2019-04-11T16:27:26.349Z,15.37
2019-04-11T16:29:56.875Z,14.37
2019-04-11T16:32:27.186Z,12.57
2019-04-11T16:35:00.224Z,15.40
2019-04-11T16:37:29.739Z,13.30
2019-04-11T16:40:16.344Z,15.90
2019-04-11T16:42:45.776Z,12.37
2019-04-11T16:45:16.605Z,12.33
2019-04-11T16:47:53.767Z,16.27
2019-04-11T16:50:23.476Z,13.50
2019-04-11T16:52:52.234Z,23.53
2019-04-11T16:55:21.077Z,15.53
2019-04-11T16:57:49.933Z,16.33
2019-04-11T17:00:21.182Z,22.57
2019-04-11T17:02:50.271Z,14.50
2019-04-11T17:05:18.997Z,14.37
2019-04-11T17:07:53.874Z,17.33
2019-04-11T17:10:40.910Z,20.20
2019-04-11T17:13:09.916Z,21.97
2019-04-11T17:15:38.893Z,21.23
2019-04-11T17:18:07.835Z,19.93
2019-04-11T17:20:39.568Z,18.97
2019-04-11T17:23:07.038Z,29.43
2019-04-11T17:25:35.999Z,17.10
2019-04-11T17:28:04.777Z,17.90
2019-04-11T17:30:33.555Z,18.40
2019-04-11T17:33:02.338Z,20.90
2019-04-11T17:35:31.701Z,28.83
2019-04-11T17:38:03.675Z,18.77
2019-04-11T17:40:31.334Z,21.80
2019-04-11T17:43:00.164Z,22.80
2019-04-11T17:45:28.885Z,21.97
2019-04-11T17:47:57.798Z,22.03
2019-04-11T17:50:26.586Z,31.00
2019-04-11T17:52:55.447Z,28.00
2019-04-11T17:55:24.555Z,26.53
2019-04-11T17:57:54.940Z,26.30
2019-04-11T18:00:29.580Z,22.20
2019-04-11T18:02:56.031Z,22.83
2019-04-11T18:05:24.808Z,19.70
2019-04-11T18:07:53.476Z,22.50
2019-04-11T18:10:25.818Z,20.60
2019-04-11T18:12:55.731Z,17.00
2019-04-11T18:15:23.256Z,18.77
2019-04-11T18:17:52.052Z,16.70
2019-04-11T18:20:21.104Z,17.03
2019-04-11T18:22:50.437Z,24.97
2019-04-11T18:25:20.951Z,20.07
2019-04-11T18:27:52.408Z,26.57
2019-04-11T18:30:20.968Z,19.20
2019-04-11T18:32:51.288Z,21.77
2019-04-11T18:35:20.073Z,19.77
2019-04-11T18:37:48.986Z,18.20
2019-04-11T18:40:18.462Z,17.47
2019-04-11T18:42:47.789Z,20.00
2019-04-11T18:45:17.879Z,18.67
2019-04-11T18:47:47.225Z,17.83
2019-04-11T18:50:17.202Z,21.77
2019-04-11T18:52:46.157Z,20.27
2019-04-11T18:55:15.172Z,19.97
2019-04-11T18:57:43.972Z,19.33
2019-04-11T19:00:14.978Z,17.53
2019-04-11T19:02:43.855Z,17.93
2019-04-11T19:05:13.338Z,19.33
2019-04-11T19:07:43.529Z,15.53
2019-04-11T19:10:14.976Z,15.80
2019-04-11T19:12:46.488Z,15.93
2019-04-11T19:15:16.933Z,19.60
2019-04-11T19:17:46.809Z,20.90
2019-04-11T19:20:18.958Z,15.57
2019-04-11T19:22:47.062Z,15.07
2019-04-11T19:25:16.126Z,18.63
2019-04-11T19:27:44.930Z,16.60
2019-04-11T19:30:13.959Z,16.10
2019-04-11T19:32:42.952Z,16.10
2019-04-11T19:35:11.785Z,22.10
2019-04-11T19:37:42.096Z,16.23
2019-04-11T19:40:11.183Z,20.37
2019-04-11T19:42:39.947Z,16.90
2019-04-11T19:45:08.932Z,18.03
2019-04-11T19:47:37.667Z,18.33
2019-04-11T19:50:07.518Z,18.00
2019-04-11T19:52:45.263Z,17.83
2019-04-11T19:55:21.435Z,18.77
2019-04-11T19:57:50.363Z,17.87
2019-04-11T20:00:21.313Z,18.17
2019-04-11T20:02:51.861Z,18.40
2019-04-11T20:05:20.000Z,16.13
2019-04-11T20:07:48.855Z,19.17
2019-04-11T20:10:17.625Z,27.97
2019-04-11T20:12:46.275Z,19.70
2019-04-11T20:15:15.084Z,23.63
2019-04-11T20:17:45.002Z,18.10
2019-04-11T20:20:14.070Z,24.47
2019-04-11T20:22:42.920Z,17.77
2019-04-11T20:25:16.004Z,19.27
2019-04-11T20:27:42.167Z,21.67
2019-04-11T20:30:11.144Z,19.03
2019-04-11T20:32:39.957Z,18.83
2019-04-11T20:35:10.134Z,23.63
2019-04-11T20:37:42.242Z,19.50
2019-04-11T20:40:09.774Z,26.60
2019-04-11T20:42:38.562Z,22.00
2019-04-11T20:45:07.433Z,18.87
2019-04-11T20:47:36.324Z,21.60
2019-04-11T20:50:07.699Z,20.50
2019-04-11T20:52:36.863Z,18.57
2019-04-11T20:55:09.229Z,23.03
2019-04-11T20:57:40.441Z,20.83
2019-04-11T21:00:12.121Z,19.33
2019-04-11T21:02:39.723Z,19.80
2019-04-11T21:05:08.814Z,22.13
2019-04-11T21:07:39.151Z,21.80
2019-04-11T21:10:09.021Z,21.27
2019-04-11T21:12:38.446Z,22.87
2019-04-11T21:15:08.648Z,26.33
2019-04-11T21:17:37.624Z,22.20
2019-04-11T21:20:08.501Z,22.70
2019-04-11T21:22:37.525Z,21.87
2019-04-11T21:25:07.445Z,23.27
2019-04-11T21:27:36.701Z,22.80
2019-04-11T21:30:07.727Z,24.60
2019-04-11T21:32:36.795Z,24.43
2019-04-11T21:35:06.981Z,25.40
2019-04-11T21:37:36.760Z,20.13
2019-04-11T21:40:07.631Z,23.80
2019-04-11T21:42:36.768Z,23.87
2019-04-11T21:45:07.134Z,24.87
2019-04-11T21:47:37.185Z,22.73
2019-04-11T21:50:09.661Z,26.73
2019-04-11T21:52:43.288Z,21.87
2019-04-11T21:55:10.138Z,20.50
2019-04-11T21:57:39.151Z,26.10
2019-04-11T22:00:27.759Z,22.07
2019-04-11T22:02:57.168Z,21.73
2019-04-11T22:05:29.055Z,23.73
2019-04-11T22:07:57.227Z,24.30
2019-04-11T22:10:26.202Z,22.17
2019-04-11T22:12:54.959Z,25.97
2019-04-11T22:15:23.982Z,23.03
2019-04-11T22:17:53.072Z,27.27
2019-04-11T22:20:22.163Z,25.93
2019-04-11T22:22:51.063Z,26.63
2019-04-11T22:25:20.008Z,24.30
2019-04-11T22:27:51.038Z,24.70
2019-04-11T22:30:25.067Z,26.77
2019-04-11T22:32:55.066Z,24.93
2019-04-11T22:35:23.500Z,27.20
2019-04-11T22:37:52.366Z,30.13
2019-04-11T22:40:21.247Z,22.50
2019-04-11T22:42:50.059Z,25.23
2019-04-11T22:45:18.852Z,26.77
2019-04-11T22:47:47.759Z,24.50
2019-04-11T22:50:16.738Z,23.03
2019-04-11T22:52:45.557Z,24.33
2019-04-11T22:55:14.549Z,25.20
2019-04-11T22:57:44.343Z,29.37
2019-04-11T23:00:15.193Z,25.67
2019-04-11T23:03:02.483Z,20.97
2019-04-11T23:05:31.649Z,24.13
2019-04-11T23:08:02.778Z,25.67
2019-04-11T23:10:30.949Z,24.53
2019-04-11T23:12:59.808Z,22.63
2019-04-11T23:15:28.658Z,28.60
2019-04-11T23:17:57.590Z,28.70
2019-04-11T23:20:27.031Z,23.93
2019-04-11T23:22:55.766Z,21.77
2019-04-11T23:25:24.815Z,21.60
2019-04-11T23:27:53.689Z,22.70
2019-04-11T23:30:22.466Z,21.40
2019-04-11T23:32:51.798Z,25.10
2019-04-11T23:35:21.207Z,24.33
2019-04-11T23:37:51.919Z,26.67
2019-04-11T23:40:22.543Z,23.97
2019-04-11T23:42:51.482Z,28.57
2019-04-11T23:45:24.762Z,23.37
2019-04-11T23:47:54.352Z,22.93
2019-04-11T23:50:25.218Z,22.73
2019-04-11T23:52:57.006Z,21.33
2019-04-11T23:55:24.085Z,21.87
2019-04-11T23:57:53.024Z,24.77
